Time;durP1;ratioP1;P1;durP2;ratioP2;P2;SDS_P1;SDS_P2;PMS_P1;PMS_P2;Temp;Humidity;BMP_temperature;BMP_pressure;BME280_temperature;BME280_humidity;BME280_pressure;Samples;Min_cycle;Max_cycle;Signal;HPM_P1;HPM_P2
2023/11/19 00:01:50;;;;;;;;;4.00;4.00;;;;;-143.90;100.00;76770.63;4963629;28;102516;-76
2023/11/19 00:04:17;;;;;;;;;5.25;4.25;;;;;-143.90;100.00;76768.56;4958686;28;104351;-76
2023/11/19 00:06:44;;;;;;;;;3.25;2.00;;;;;-143.90;100.00;76768.56;4955132;28;102628;-76
2023/11/19 00:09:11;;;;;;;;;2.00;1.00;;;;;-143.90;100.00;76772.72;4957326;28;104079;-74
2023/11/19 00:11:38;;;;;;;;;2.00;1.75;;;;;-143.90;100.00;76774.78;4954345;28;102254;-75
2023/11/19 00:14:08;;;;;;;;;7.75;6.00;;;;;-143.90;100.00;76768.56;4955747;28;102283;-75
2023/11/19 00:16:35;;;;;;;;;7.00;4.25;;;;;-143.90;100.00;76770.63;4959321;28;102188;-74
2023/11/19 00:19:01;;;;;;;;;5.25;5.25;;;;;-143.90;100.00;76764.44;4966521;28;103602;-76
2023/11/19 00:21:33;;;;;;;;;2.00;2.00;;;;;-143.90;100.00;76764.44;4965734;28;102238;-75
2023/11/19 00:23:59;;;;;;;;;9.00;7.00;;;;;-143.90;100.00;76766.50;4971013;28;101843;-76
2023/11/19 00:26:26;;;;;;;;;2.50;2.00;;;;;-143.90;100.00;76764.44;4965459;28;102453;-76
2023/11/19 00:28:52;;;;;;;;;2.50;2.50;;;;;-143.90;100.00;76764.44;4966866;28;104008;-75
2023/11/19 00:31:19;;;;;;;;;3.25;2.75;;;;;-143.90;100.00;76754.09;4962951;28;102165;-75
2023/11/19 00:33:46;;;;;;;;;4.00;2.00;;;;;-143.90;100.00;76754.09;4965048;28;102565;-75
2023/11/19 00:36:15;;;;;;;;;3.75;2.00;;;;;-143.90;100.00;76756.16;4962910;28;102205;-76
2023/11/19 00:38:41;;;;;;;;;5.50;4.00;;;;;-143.90;100.00;76758.22;4963977;28;104105;-76
2023/11/19 00:41:08;;;;;;;;;5.00;4.00;;;;;-143.90;100.00;76778.91;4964726;28;102840;-76
2023/11/19 00:43:35;;;;;;;;;4.75;4.75;;;;;-143.90;100.00;76776.84;4967052;28;102507;-74
2023/11/19 00:46:03;;;;;;;;;10.75;7.50;;;;;-143.90;100.00;76768.56;4964027;28;102309;-76
2023/11/19 00:48:29;;;;;;;;;5.25;5.00;;;;;-143.90;100.00;76764.44;4962461;28;104315;-75
2023/11/19 00:50:56;;;;;;;;;2.00;2.00;;;;;-143.90;100.00;76764.44;4967439;28;102271;-76
2023/11/19 00:53:22;;;;;;;;;4.50;4.50;;;;;-143.90;100.00;76756.16;4966403;28;102091;-75
2023/11/19 00:55:49;;;;;;;;;4.00;3.75;;;;;-143.90;100.00;76768.56;4966481;28;102402;-76
2023/11/19 00:58:17;;;;;;;;;5.00;4.00;;;;;-143.90;100.00;76768.56;4964252;28;104581;-76
2023/11/19 01:00:44;;;;;;;;;6.00;3.75;;;;;-143.90;100.00;76764.44;4962230;28;102431;-76
2023/11/19 01:03:11;;;;;;;;;4.50;3.50;;;;;-143.90;100.00;76762.38;4961840;28;102070;-76
2023/11/19 01:05:39;;;;;;;;;2.00;2.00;;;;;-143.90;100.00;76762.38;4964895;28;102626;-76
2023/11/19 01:08:06;;;;;;;;;1.75;0.25;;;;;-143.90;100.00;76756.16;4964703;28;104211;-76
2023/11/19 01:10:33;;;;;;;;;2.00;2.00;;;;;-143.90;100.00;76762.38;4955755;28;102601;-76
2023/11/19 01:13:00;;;;;;;;;2.00;2.00;;;;;-143.90;100.00;76764.44;4963253;28;102137;-75
2023/11/19 01:15:27;;;;;;;;;1.00;1.00;;;;;-143.90;100.00;76762.38;4966368;28;102448;-76
2023/11/19 01:17:53;;;;;;;;;0.00;0.00;;;;;-143.90;100.00;76756.16;4964967;28;104001;-75
2023/11/19 01:20:20;;;;;;;;;4.25;3.00;;;;;-143.90;100.00;76754.09;4962939;28;102177;-75
2023/11/19 01:22:48;;;;;;;;;2.25;1.75;;;;;-143.90;100.00;76747.88;4962332;28;102372;-76
2023/11/19 01:25:15;;;;;;;;;5.00;1.75;;;;;-143.90;100.00;76752.03;4962726;28;102503;-76
2023/11/19 01:27:42;;;;;;;;;4.00;1.00;;;;;-143.90;100.00;76747.88;4957999;28;104293;-76
2023/11/19 01:30:12;;;;;;;;;1.00;1.00;;;;;-143.90;100.00;76739.63;4961863;28;102210;-75
2023/11/19 01:32:40;;;;;;;;;1.00;0.00;;;;;-143.90;100.00;76741.69;4962812;28;102591;-76
2023/11/19 01:35:07;;;;;;;;;2.00;2.00;;;;;-143.90;100.00;76735.47;4964152;28;102447;-76
2023/11/19 01:37:35;;;;;;;;;2.00;1.75;;;;;-143.90;100.00;76733.41;4964341;28;103743;-77
2023/11/19 01:40:04;;;;;;;;;1.25;0.00;;;;;-143.90;100.00;76729.28;4966176;28;102043;-77
2023/11/19 01:42:39;;;;;;;;;2.50;1.00;;;;;-143.90;100.00;76729.28;4966779;28;102189;-75
2023/11/19 01:45:08;;;;;;;;;3.50;2.00;;;;;-143.90;100.00;76735.47;4965593;28;102406;-76
2023/11/19 01:47:35;;;;;;;;;2.00;1.00;;;;;-143.90;100.00;76731.34;4965700;28;104963;-76
2023/11/19 01:50:06;;;;;;;;;4.75;3.50;;;;;-143.90;100.00;76731.34;4961183;28;102329;-76
2023/11/19 01:52:37;;;;;;;;;5.25;4.75;;;;;-143.90;100.00;76731.34;4958660;28;102265;-76
2023/11/19 01:55:05;;;;;;;;;2.00;1.00;;;;;-143.90;100.00;76718.94;4958688;28;102405;-76
2023/11/19 01:57:31;;;;;;;;;4.75;1.00;;;;;-143.90;100.00;76718.94;4962867;28;104103;-76
2023/11/19 01:59:58;;;;;;;;;3.50;1.00;;;;;-143.90;100.00;76716.88;4965219;28;102188;-76
2023/11/19 02:02:26;;;;;;;;;2.50;1.00;;;;;-143.90;100.00;76718.94;4965036;28;102696;-76
2023/11/19 02:04:53;;;;;;;;;5.00;2.00;;;;;-143.90;100.00;76718.94;4964077;28;104654;-75
2023/11/19 02:07:20;;;;;;;;;4.50;3.25;;;;;-143.90;100.00;76708.59;4963744;28;104099;-76
2023/11/19 02:09:47;;;;;;;;;2.00;2.00;;;;;-143.90;100.00;76725.13;4965356;28;102278;-76
2023/11/19 02:12:15;;;;;;;;;10.25;8.25;;;;;-143.90;100.00;76739.63;4965974;28;102098;-76
2023/11/19 02:14:41;;;;;;;;;6.50;5.00;;;;;-143.90;100.00;76729.28;4966573;28;102457;-76
2023/11/19 02:17:25;;;;;;;;;7.00;6.50;;;;;-143.90;100.00;76714.78;4959292;28;104231;-75
2023/11/19 02:19:52;;;;;;;;;2.00;2.00;;;;;-143.90;100.00;76712.72;4962889;28;102567;-75
2023/11/19 02:22:18;;;;;;;;;5.00;3.75;;;;;-143.90;100.00;76696.19;4964699;28;102038;-76
2023/11/19 02:24:49;;;;;;;;;5.00;4.50;;;;;-143.90;100.00;76692.03;4962526;28;102298;-75
2023/11/19 02:27:45;;;;;;;;;9.25;5.50;;;;;-143.90;100.00;76689.97;4964801;28;104212;-75
2023/11/19 02:30:14;;;;;;;;;3.50;2.00;;;;;-143.90;100.00;76683.78;4958423;28;102322;-76
2023/11/19 02:32:41;;;;;;;;;2.00;2.00;;;;;-143.90;100.00;76673.44;4967872;28;102122;-75
2023/11/19 02:35:08;;;;;;;;;3.50;3.00;;;;;-143.90;100.00;76665.16;4963933;28;102631;-75
2023/11/19 02:37:35;;;;;;;;;7.50;5.50;;;;;-143.90;100.00;76665.16;4968042;28;103194;-75
2023/11/19 02:40:02;;;;;;;;;6.25;5.00;;;;;-143.90;100.00;76671.38;4964933;28;102280;-75
2023/11/19 02:42:30;;;;;;;;;8.75;8.75;;;;;-143.90;100.00;76679.63;4963744;28;102193;-76
2023/11/19 02:44:56;;;;;;;;;13.75;13.25;;;;;-143.90;100.00;76687.91;4961776;28;102979;-76
2023/11/19 02:47:23;;;;;;;;;20.00;16.00;;;;;-143.90;100.00;76694.13;4962790;28;104047;-76
2023/11/19 02:49:53;;;;;;;;;19.33;16.67;;;;;-143.90;100.00;76698.25;4962155;28;102535;-76
2023/11/19 02:52:19;;;;;;;;;16.00;12.67;;;;;-143.90;100.00;76696.19;4964743;28;102052;-75
2023/11/19 02:54:46;;;;;;;;;24.00;17.67;;;;;-143.90;100.00;76681.72;4966432;28;102246;-76
2023/11/19 02:57:13;;;;;;;;;28.00;19.33;;;;;-143.90;100.00;76696.19;4964054;28;104092;-74
2023/11/19 02:59:48;;;;;;;;;19.33;16.00;;;;;-143.90;100.00;76706.53;4965661;28;102202;-74
2023/11/19 03:02:17;;;;;;;;;14.25;11.75;;;;;-143.90;100.00;76698.25;4966380;28;102186;-76
2023/11/19 03:04:45;;;;;;;;;9.33;8.33;;;;;-143.90;100.00;76696.19;4963161;28;103770;-75
2023/11/19 03:07:13;;;;;;;;;11.50;8.75;;;;;-143.90;100.00;76679.63;4963914;28;104241;-75
2023/11/19 03:09:40;;;;;;;;;12.25;8.75;;;;;-143.90;100.00;76679.63;4963601;28;102193;-75
2023/11/19 03:12:07;;;;;;;;;12.75;8.00;;;;;-143.90;100.00;76681.72;4964680;28;102107;-75
2023/11/19 03:14:34;;;;;;;;;8.00;6.25;;;;;-143.90;100.00;76685.84;4965932;28;102174;-76
2023/11/19 03:17:01;;;;;;;;;9.50;6.50;;;;;-143.90;100.00;76683.78;4963032;28;104014;-75
2023/11/19 03:19:28;;;;;;;;;16.00;13.00;;;;;-143.90;100.00;76698.25;4963051;28;102808;-76
2023/11/19 03:21:54;;;;;;;;;19.00;15.67;;;;;-143.90;100.00;76706.53;4964119;28;102499;-75
2023/11/19 03:24:21;;;;;;;;;18.33;16.00;;;;;-143.90;100.00;76714.78;4962874;28;102443;-76
2023/11/19 03:26:50;;;;;;;;;14.50;12.00;;;;;-143.90;100.00;76698.25;4961173;28;104100;-76
2023/11/19 03:29:16;;;;;;;;;8.00;8.00;;;;;-143.90;100.00;76692.03;4962060;28;102095;-76
2023/11/19 03:31:44;;;;;;;;;10.75;8.50;;;;;-143.90;100.00;76685.84;4964194;28;102185;-76
2023/11/19 03:34:11;;;;;;;;;16.50;8.75;;;;;-143.90;100.00;76675.50;4965120;28;102433;-76
2023/11/19 03:36:37;;;;;;;;;11.25;8.75;;;;;-143.90;100.00;76671.38;4964560;28;103772;-76
2023/11/19 03:39:04;;;;;;;;;10.50;7.75;;;;;-143.90;100.00;76669.28;4960925;28;102454;-76
2023/11/19 03:41:31;;;;;;;;;14.50;10.25;;;;;-143.90;100.00;76669.28;4960439;28;102177;-76
2023/11/19 03:44:07;;;;;;;;;10.75;8.00;;;;;-143.90;100.00;76667.22;4963158;28;102512;-76
2023/11/19 03:46:35;;;;;;;;;10.25;9.00;;;;;-143.90;100.00;76675.50;4962713;28;103941;-76
2023/11/19 03:49:04;;;;;;;;;9.00;7.50;;;;;-143.90;100.00;76669.28;4964591;28;102501;-76
2023/11/19 03:51:31;;;;;;;;;9.50;8.50;;;;;-143.90;100.00;76646.53;4963685;28;102471;-76
2023/11/19 03:53:59;;;;;;;;;4.50;4.50;;;;;-143.90;100.00;76627.94;4962813;28;102241;-74
2023/11/19 03:56:27;;;;;;;;;15.25;12.00;;;;;-143.90;100.00;76656.88;4963974;28;104192;-76
2023/11/19 03:58:54;;;;;;;;;17.00;12.75;;;;;-143.90;100.00;76658.97;4967002;28;102316;-76
2023/11/19 04:01:20;;;;;;;;;10.00;8.00;;;;;-143.90;100.00;76656.88;4967380;28;102295;-76
2023/11/19 04:03:47;;;;;;;;;8.00;5.00;;;;;-143.90;100.00;76656.88;4967149;28;102315;-76
2023/11/19 04:06:17;;;;;;;;;6.00;5.75;;;;;-143.90;100.00;76665.16;4960102;28;104061;-75
2023/11/19 04:08:44;;;;;;;;;8.50;8.00;;;;;-143.90;100.00;76658.97;4967695;28;102225;-75
2023/11/19 04:11:11;;;;;;;;;8.00;6.50;;;;;-143.90;100.00;76650.69;4966575;28;102239;-76
2023/11/19 04:13:37;;;;;;;;;8.00;7.75;;;;;-143.90;100.00;76661.03;4983614;28;102202;-76
2023/11/19 04:16:04;;;;;;;;;6.00;5.67;;;;;-143.90;100.00;76661.03;4966512;28;104084;-76
2023/11/19 04:18:32;;;;;;;;;10.33;6.33;;;;;-143.90;100.00;76661.03;4967371;28;102316;-76
2023/11/19 04:20:58;;;;;;;;;8.25;8.25;;;;;-143.90;100.00;76673.44;4966278;28;102038;-76
2023/11/19 04:23:25;;;;;;;;;7.00;5.75;;;;;-143.90;100.00;76681.72;4968279;28;102219;-76
2023/11/19 04:25:51;;;;;;;;;6.33;5.00;;;;;-143.90;100.00;76677.56;4965414;28;104229;-76
2023/11/19 04:28:18;;;;;;;;;6.00;4.75;;;;;-143.90;100.00;76677.56;4963227;28;102460;-76
2023/11/19 04:30:45;;;;;;;;;4.75;4.50;;;;;-143.90;100.00;76669.28;4962019;28;103061;-76
2023/11/19 04:33:12;;;;;;;;;7.50;5.75;;;;;-143.90;100.00;76673.44;4968696;28;102448;-76
2023/11/19 04:35:38;;;;;;;;;8.75;7.00;;;;;-143.90;100.00;76681.72;4965429;28;103662;-76
2023/11/19 04:38:05;;;;;;;;;10.33;6.00;;;;;-143.90;100.00;76677.56;4966964;28;102249;-76
2023/11/19 04:40:33;;;;;;;;;6.75;4.75;;;;;-143.90;100.00;76679.63;4963279;28;101955;-76
2023/11/19 04:43:00;;;;;;;;;6.33;5.00;;;;;-143.90;100.00;76681.72;4966858;28;102130;-76
2023/11/19 04:45:27;;;;;;;;;8.00;6.33;;;;;-143.90;100.00;76692.03;4965697;28;104001;-76
2023/11/19 04:47:54;;;;;;;;;25.67;18.67;;;;;-143.90;100.00;76710.66;4963908;28;103103;-76
2023/11/19 04:50:20;;;;;;;;;19.67;15.00;;;;;-143.90;100.00;76710.66;4965710;28;102694;-76
2023/11/19 04:52:48;;;;;;;;;15.67;12.67;;;;;-143.90;100.00;76716.88;4966399;28;102762;-77
2023/11/19 04:55:14;;;;;;;;;8.00;5.25;;;;;-143.90;100.00;76710.66;4968258;28;103689;-77
2023/11/19 04:57:42;;;;;;;;;12.00;8.33;;;;;-143.90;100.00;76716.88;4970889;28;102280;-77
2023/11/19 05:00:11;;;;;;;;;18.00;14.00;;;;;-143.90;100.00;76718.94;4965767;28;102993;-77
2023/11/19 05:02:40;;;;;;;;;16.00;13.33;;;;;-143.90;100.00;76716.88;4968303;28;102260;-76
2023/11/19 05:05:09;;;;;;;;;27.00;22.67;;;;;-143.90;100.00;76723.06;4964441;28;104025;-77
2023/11/19 05:07:35;;;;;;;;;34.67;29.00;;;;;-143.90;100.00;76739.63;4963625;28;102448;-77
2023/11/19 05:10:03;;;;;;;;;41.33;31.67;;;;;-143.90;100.00;76752.03;4961638;28;102297;-77
2023/11/19 05:12:31;;;;;;;;;37.33;30.67;;;;;-143.90;100.00;76747.88;4965487;28;102513;-77
2023/11/19 05:14:58;;;;;;;;;37.33;32.00;;;;;-143.90;100.00;76749.97;4963726;28;104154;-76
2023/11/19 05:17:24;;;;;;;;;33.67;26.33;;;;;-143.90;100.00;76756.16;4960226;28;102346;-77
2023/11/19 05:19:51;;;;;;;;;32.67;25.00;;;;;-143.90;100.00;76760.28;4964234;28;102477;-76
2023/11/19 05:22:18;;;;;;;;;22.00;19.00;;;;;-143.90;100.00;76743.75;4965739;28;102133;-77
2023/11/19 05:24:44;;;;;;;;;18.00;15.00;;;;;-143.90;100.00;76727.22;4966562;28;103926;-77
2023/11/19 05:27:12;;;;;;;;;24.00;19.67;;;;;-143.90;100.00;76725.13;4967426;28;102153;-77
2023/11/19 05:29:41;;;;;;;;;23.67;12.67;;;;;-143.90;100.00;76718.94;4966510;28;102144;-77
2023/11/19 05:32:07;;;;;;;;;21.67;17.33;;;;;-143.90;100.00;76718.94;4967668;28;101926;-77
2023/11/19 05:34:34;;;;;;;;;37.33;27.67;;;;;-143.90;100.00;76723.06;4962510;28;104036;-76
2023/11/19 05:37:01;;;;;;;;;26.67;23.00;;;;;-143.90;100.00;76704.47;4958946;28;102447;-76
2023/11/19 05:39:28;;;;;;;;;29.33;23.67;;;;;-143.90;100.00;76683.78;4965279;28;102328;-76
2023/11/19 05:41:55;;;;;;;;;33.67;28.00;;;;;-143.90;100.00;76677.56;4967083;28;102460;-77
2023/11/19 05:44:21;;;;;;;;;31.00;26.00;;;;;-143.90;100.00;76665.16;4964501;28;104116;-77
2023/11/19 05:46:48;;;;;;;;;41.00;31.33;;;;;-143.90;100.00;76665.16;4956462;28;102480;-77
2023/11/19 05:49:15;;;;;;;;;29.00;21.67;;;;;-143.90;100.00;76661.03;4962095;28;102653;-76
2023/11/19 05:51:41;;;;;;;;;27.33;22.00;;;;;-143.90;100.00;76650.69;4962771;28;102226;-77
2023/11/19 05:54:09;;;;;;;;;20.33;16.33;;;;;-143.90;100.00;76652.75;4960480;28;104270;-76
2023/11/19 05:56:36;;;;;;;;;15.67;13.33;;;;;-143.90;100.00;76652.75;4962349;28;102082;-77
2023/11/19 05:59:06;;;;;;;;;14.33;11.00;;;;;-143.90;100.00;76644.47;4961309;28;102336;-76
2023/11/19 06:01:36;;;;;;;;;12.00;8.33;;;;;-143.90;100.00;76646.53;4966771;28;102188;-76
2023/11/19 06:04:04;;;;;;;;;5.67;5.67;;;;;-143.90;100.00;76648.63;4965898;28;103748;-77
2023/11/19 06:06:31;;;;;;;;;9.00;7.00;;;;;-143.90;100.00;76646.53;4963842;28;102384;-76
2023/11/19 06:08:57;;;;;;;;;9.00;8.67;;;;;-143.90;100.00;76640.34;4964382;28;102069;-75
2023/11/19 06:11:26;;;;;;;;;9.67;8.33;;;;;-143.90;100.00;76648.63;4966802;28;102372;-76
2023/11/19 06:13:53;;;;;;;;;12.00;8.00;;;;;-143.90;100.00;76640.34;4960805;28;104161;-77
2023/11/19 06:16:20;;;;;;;;;12.67;9.00;;;;;-143.90;100.00;76632.06;4964380;28;102613;-76
2023/11/19 06:18:47;;;;;;;;;6.33;4.67;;;;;-143.90;100.00;76630.00;4961296;28;102072;-76
2023/11/19 06:21:13;;;;;;;;;11.00;10.33;;;;;-143.90;100.00;76623.78;4965889;28;102297;-75
2023/11/19 06:23:40;;;;;;;;;20.00;15.00;;;;;-143.90;100.00;76617.59;4964401;28;104225;-76
2023/11/19 06:26:07;;;;;;;;;21.67;15.67;;;;;-143.90;100.00;76613.47;4964637;28;102454;-76
2023/11/19 06:28:33;;;;;;;;;13.33;11.00;;;;;-143.90;100.00;76607.25;4959451;28;102472;-76
2023/11/19 06:31:00;;;;;;;;;13.00;11.67;;;;;-143.90;100.00;76588.63;4962099;28;102346;-76
2023/11/19 06:33:27;;;;;;;;;12.33;8.67;;;;;-143.90;100.00;76582.44;4963198;28;103644;-77
2023/11/19 06:35:54;;;;;;;;;15.00;11.67;;;;;-143.90;100.00;76570.03;4963305;28;102655;-76
2023/11/19 06:38:21;;;;;;;;;12.67;10.67;;;;;-143.90;100.00;76559.69;4964665;28;101984;-76
2023/11/19 06:40:47;;;;;;;;;15.67;13.00;;;;;-143.90;100.00;76555.53;4965924;28;102225;-76
2023/11/19 06:43:19;;;;;;;;;18.00;15.00;;;;;-143.90;100.00;76549.34;4964666;28;104107;-76
2023/11/19 06:45:45;;;;;;;;;18.67;16.00;;;;;-143.90;100.00;76539.00;4964115;28;101825;-76
2023/11/19 06:48:12;;;;;;;;;28.00;21.00;;;;;-143.90;100.00;76524.53;4965030;28;102280;-76
2023/11/19 06:50:39;;;;;;;;;28.00;19.67;;;;;-143.90;100.00;76514.19;4962794;28;102044;-76
2023/11/19 06:53:06;;;;;;;;;30.33;23.33;;;;;-143.90;100.00;76510.06;4963466;28;104071;-76
2023/11/19 06:55:32;;;;;;;;;33.33;25.00;;;;;-143.90;100.00;76514.19;4958680;28;102072;-76
2023/11/19 06:58:00;;;;;;;;;31.33;25.67;;;;;-143.90;100.00;76503.84;4960944;28;102485;-76
2023/11/19 07:00:27;;;;;;;;;31.33;28.33;;;;;-143.90;100.00;76499.72;4963704;28;102613;-77
2023/11/19 07:02:53;;;;;;;;;28.67;24.00;;;;;-143.90;100.00;76479.03;4964180;28;104149;-76
2023/11/19 07:05:20;;;;;;;;;34.33;23.33;;;;;-143.90;100.00;76483.16;4961170;28;102897;-77
2023/11/19 07:07:47;;;;;;;;;18.00;13.00;;;;;-143.90;100.00;76476.97;4963269;28;102764;-76
2023/11/19 07:10:13;;;;;;;;;25.67;18.33;;;;;-143.90;100.00;76474.91;4964961;28;102811;-76
2023/11/19 07:12:41;;;;;;;;;13.67;11.67;;;;;-143.90;100.00;76468.69;4965834;28;104323;-77
2023/11/19 07:15:09;;;;;;;;;43.00;28.67;;;;;-143.90;100.00;76470.75;4970936;28;102242;-76
2023/11/19 07:17:36;;;;;;;;;19.33;17.00;;;;;-143.90;100.00;76468.69;4968380;28;102844;-75
2023/11/19 07:20:05;;;;;;;;;32.33;25.00;;;;;-143.90;100.00;76470.75;4965672;28;102350;-75
2023/11/19 07:22:32;;;;;;;;;25.67;23.67;;;;;-143.90;100.00;76462.47;4960856;28;104129;-76
2023/11/19 07:24:59;;;;;;;;;23.33;17.33;;;;;-143.90;100.00;76454.22;4960605;28;102425;-76
2023/11/19 07:27:25;;;;;;;;;21.00;17.67;;;;;-143.90;100.00;76441.81;4960969;28;101963;-76
2023/11/19 07:29:52;;;;;;;;;21.00;18.00;;;;;-143.90;100.00;76437.66;4965691;28;102420;-76
2023/11/19 07:32:18;;;;;;;;;23.33;19.00;;;;;-143.90;100.00;76423.19;4964128;28;103813;-76
2023/11/19 07:34:45;;;;;;;;;20.00;17.00;;;;;-143.90;100.00;76408.72;4964862;28;102157;-76
2023/11/19 07:37:12;;;;;;;;;23.00;20.00;;;;;-143.90;100.00;76400.44;4962320;28;102406;-76
2023/11/19 07:39:40;;;;;;;;;27.00;23.00;;;;;-143.90;100.00;76404.56;4959721;28;103101;-76
2023/11/19 07:42:09;;;;;;;;;40.33;31.33;;;;;-143.90;100.00;76398.38;4962150;28;103403;-76
2023/11/19 07:44:36;;;;;;;;;25.67;22.67;;;;;-143.90;100.00;76383.91;4964933;28;102074;-76
2023/11/19 07:47:03;;;;;;;;;30.67;24.67;;;;;-143.90;100.00;76375.63;4962698;28;101992;-76
2023/11/19 07:49:30;;;;;;;;;17.00;16.00;;;;;-143.90;100.00;76371.50;4965313;28;102103;-76
2023/11/19 07:51:57;;;;;;;;;22.33;18.33;;;;;-143.90;100.00;76361.16;4961657;28;104197;-76
2023/11/19 07:54:24;;;;;;;;;27.33;21.33;;;;;-143.90;100.00;76346.69;4963909;28;102240;-76
2023/11/19 07:56:51;;;;;;;;;19.33;16.67;;;;;-143.90;100.00;76336.34;4960954;28;102143;-76
2023/11/19 07:59:17;;;;;;;;;21.00;18.33;;;;;-143.90;100.00;76330.13;4964699;28;102364;-76
2023/11/19 08:01:44;;;;;;;;;25.50;19.00;;;;;-143.90;100.00;76309.44;4959402;28;103712;-77
2023/11/19 08:04:11;;;;;;;;;35.67;27.33;;;;;-143.90;100.00;76309.44;4963187;28;103439;-77
2023/11/19 08:06:38;;;;;;;;;26.33;19.67;;;;;-143.90;100.00;76309.44;4959922;28;102744;-77
2023/11/19 08:09:05;;;;;;;;;31.25;21.75;;;;;-143.90;100.00;76301.19;4962058;28;102165;-75
2023/11/19 08:11:32;;;;;;;;;24.50;23.75;;;;;-143.90;100.00;76278.44;4960803;28;104199;-75
2023/11/19 08:13:58;;;;;;;;;28.00;21.75;;;;;-143.90;100.00;76257.75;4956251;28;103904;-76
2023/11/19 08:16:25;;;;;;;;;34.00;18.67;;;;;-143.90;100.00;76243.28;4961362;28;102273;-76
2023/11/19 08:18:53;;;;;;;;;25.75;21.00;;;;;-143.90;100.00;76230.88;4964716;28;102315;-76
2023/11/19 08:21:22;;;;;;;;;23.25;17.25;;;;;-143.90;100.00;76228.81;4962589;28;104006;-76
2023/11/19 08:23:49;;;;;;;;;22.00;17.00;;;;;-143.90;100.00;76222.59;4958012;28;103120;-76
2023/11/19 08:26:16;;;;;;;;;18.50;11.00;;;;;-143.90;100.00;76212.25;4956097;28;102178;-75
2023/11/19 08:28:47;;;;;;;;;17.50;17.00;;;;;-143.90;100.00;76203.97;4960505;28;102429;-76
2023/11/19 08:31:14;;;;;;;;;21.00;18.00;;;;;-143.90;100.00;76191.56;4958012;28;107144;-76
2023/11/19 08:33:40;;;;;;;;;21.75;17.25;;;;;-143.90;100.00;76189.50;4957975;28;102054;-76
2023/11/19 08:36:07;;;;;;;;;24.50;21.00;;;;;-143.90;100.00;76197.78;4956177;28;103184;-76
2023/11/19 08:38:34;;;;;;;;;25.50;16.50;;;;;-143.90;100.00;76193.66;4961647;28;102440;-76
2023/11/19 08:41:01;;;;;;;;;19.25;16.75;;;;;-143.90;100.00;76189.50;4960842;28;104335;-75
2023/11/19 08:43:27;;;;;;;;;21.75;20.00;;;;;-143.90;100.00;76193.66;4963939;28;102475;-76
2023/11/19 08:45:54;;;;;;;;;20.00;17.00;;;;;-143.90;100.00;76189.50;4963416;28;102137;-76
2023/11/19 08:48:21;;;;;;;;;23.00;19.00;;;;;-143.90;100.00;76187.44;4965986;28;102532;-75
2023/11/19 08:50:48;;;;;;;;;22.00;18.50;;;;;-143.90;100.00;76185.38;4960492;28;103935;-75
2023/11/19 08:53:15;;;;;;;;;14.75;13.00;;;;;-143.90;100.00;76168.81;4957180;28;102888;-75
2023/11/19 08:55:41;;;;;;;;;18.25;16.00;;;;;-143.90;100.00;76160.56;4962629;28;102052;-75
2023/11/19 08:58:08;;;;;;;;;21.50;15.75;;;;;-143.90;100.00;76152.28;4965868;28;102734;-75
2023/11/19 09:00:35;;;;;;;;;18.50;16.00;;;;;-143.90;100.00;76158.50;4964307;28;104121;-75
2023/11/19 09:03:02;;;;;;;;;12.00;10.00;;;;;-143.90;100.00;76150.22;4966041;28;102295;-74
2023/11/19 09:05:30;;;;;;;;;21.25;16.75;;;;;-143.90;100.00;76152.28;4965858;28;102367;-75
2023/11/19 09:07:56;;;;;;;;;15.00;13.00;;;;;-143.90;100.00;76129.53;4962662;28;102180;-75
2023/11/19 09:10:23;;;;;;;;;13.75;13.25;;;;;-143.90;100.00;76131.59;4960035;28;104003;-75
2023/11/19 09:12:49;;;;;;;;;22.75;18.00;;;;;-143.90;100.00;76133.69;4963104;28;102409;-75
2023/11/19 09:15:16;;;;;;;;;23.75;18.75;;;;;-143.90;100.00;76121.28;4957197;28;102260;-76
2023/11/19 09:17:43;;;;;;;;;22.00;13.00;;;;;-143.90;100.00;76108.84;4966785;28;102479;-75
2023/11/19 09:20:12;;;;;;;;;20.50;16.50;;;;;-143.90;100.00;76104.72;4962238;28;104041;-76
2023/11/19 09:22:39;;;;;;;;;20.00;17.50;;;;;-143.90;100.00;76113.00;4960430;28;102328;-74
2023/11/19 09:25:06;;;;;;;;;17.00;12.75;;;;;-143.90;100.00;76106.78;4965327;28;102318;-75
2023/11/19 09:27:32;;;;;;;;;16.75;15.75;;;;;-143.90;100.00;76096.44;4965543;28;102562;-75
2023/11/19 09:29:59;;;;;;;;;22.00;19.75;;;;;-143.90;100.00;76092.31;4961696;28;104435;-75
2023/11/19 09:32:26;;;;;;;;;22.75;17.50;;;;;-143.90;100.00;76104.72;4966193;28;102010;-75
2023/11/19 09:34:53;;;;;;;;;13.75;10.00;;;;;-143.90;100.00;76100.59;4965842;28;102289;-76
2023/11/19 09:37:19;;;;;;;;;20.00;15.00;;;;;-143.90;100.00;76086.13;4962939;28;102597;-75
2023/11/19 09:39:48;;;;;;;;;14.75;10.00;;;;;-143.90;100.00;76071.63;4965079;28;103989;-74
2023/11/19 09:42:15;;;;;;;;;19.25;13.00;;;;;-143.90;100.00;76059.22;4964731;28;102373;-75
2023/11/19 09:44:42;;;;;;;;;16.00;12.50;;;;;-143.90;100.00;76053.03;4960983;28;102379;-75
2023/11/19 09:47:12;;;;;;;;;23.25;15.50;;;;;-143.90;100.00;76065.44;4959701;28;102456;-75
2023/11/19 09:49:39;;;;;;;;;19.50;14.75;;;;;-143.90;100.00;76042.69;4959153;28;104000;-76
2023/11/19 09:52:06;;;;;;;;;14.75;11.00;;;;;-143.90;100.00;76030.28;4961949;28;102399;-75
2023/11/19 09:54:33;;;;;;;;;10.00;8.50;;;;;-143.90;100.00;76011.66;4960030;28;103314;-75
2023/11/19 09:57:05;;;;;;;;;16.00;14.00;;;;;-143.90;100.00;76003.41;4961657;28;102290;-75
2023/11/19 09:59:33;;;;;;;;;19.00;13.00;;;;;-143.90;100.00;75988.94;4957674;28;104729;-75
2023/11/19 10:01:59;;;;;;;;;13.75;11.00;;;;;-143.90;100.00;75976.53;4964804;28;102373;-75
2023/11/19 10:04:30;;;;;;;;;18.00;11.00;;;;;-143.90;100.00;75972.38;4964121;28;102612;-76
2023/11/19 10:06:57;;;;;;;;;14.25;12.25;;;;;-143.90;100.00;75966.19;4965812;28;102323;-75
2023/11/19 10:09:23;;;;;;;;;13.00;10.75;;;;;-143.90;100.00;75937.22;4957940;28;104226;-75
2023/11/19 10:11:50;;;;;;;;;18.00;12.00;;;;;-143.90;100.00;75928.97;4961665;28;102723;-75
2023/11/19 10:14:22;;;;;;;;;14.25;10.00;;;;;-143.90;100.00;75916.56;4964073;28;102220;-75
2023/11/19 10:16:49;;;;;;;;;18.25;16.75;;;;;-143.90;100.00;75912.41;4953584;28;102360;-75
2023/11/19 10:19:20;;;;;;;;;12.75;10.00;;;;;-143.90;100.00;75900.00;4958515;28;104239;-76
2023/11/19 10:21:48;;;;;;;;;11.50;10.25;;;;;-143.90;100.00;75877.25;4960238;28;104213;-76
2023/11/19 10:24:15;;;;;;;;;23.00;19.00;;;;;-143.90;100.00;75877.25;4956826;28;102684;-76
2023/11/19 10:26:56;;;;;;;;;18.75;17.75;;;;;-143.90;100.00;75854.53;4957221;28;102312;-76
2023/11/19 10:29:24;;;;;;;;;16.25;14.00;;;;;-143.90;100.00;75833.84;4959579;28;104271;-75
2023/11/19 10:31:58;;;;;;;;;14.25;11.75;;;;;-143.90;100.00;75809.03;4951304;28;102127;-74
2023/11/19 10:34:45;;;;;;;;;13.50;10.75;;;;;-143.90;99.63;75804.91;4960295;28;102278;-75
2023/11/19 10:37:32;;;;;;;;;17.25;14.50;;;;;-143.90;97.69;75800.75;4958121;28;102339;-74
2023/11/19 10:39:59;;;;;;;;;10.25;8.50;;;;;-143.90;99.22;75794.56;4958649;28;104193;-74
2023/11/19 10:42:26;;;;;;;;;13.75;7.50;;;;;-143.90;99.43;75780.09;4963140;28;102487;-75
2023/11/19 10:44:53;;;;;;;;;4.50;2.75;;;;;-143.90;98.83;75784.22;4962462;28;102229;-74
2023/11/19 10:47:20;;;;;;;;;8.75;5.50;;;;;-143.90;98.76;75780.09;4962315;28;103040;-74
2023/11/19 10:50:06;;;;;;;;;13.00;12.00;;;;;-143.90;97.79;75788.34;4959629;28;104122;-74
2023/11/19 10:52:33;;;;;;;;;17.25;14.25;;;;;-143.90;98.96;75794.56;4960673;28;102099;-76
2023/11/19 10:55:04;;;;;;;;;14.25;10.50;;;;;-143.90;99.56;75780.09;4956545;28;102380;-75